Time;durP1;ratioP1;P1;durP2;ratioP2;P2;SDS_P1;SDS_P2;PMS_P1;PMS_P2;Temp;Humidity;BMP_temperature;BMP_pressure;BME280_temperature;BME280_humidity;BME280_pressure;Samples;Min_cycle;Max_cycle;Signal;HPM_P1;HPM_P2
2021/05/03 00:00:21;;;;;;;0.72;0.70;;;;;;;8.90;69.26;98124.08;1769399;78;21635;-61
2021/05/03 00:02:48;;;;;;;1.40;0.80;;;;;;;8.89;69.35;98133.07;1799975;78;21164;-60
2021/05/03 00:05:22;;;;;;;0.88;0.70;;;;;;;8.87;69.13;98132.42;1815255;78;21141;-59
2021/05/03 00:07:50;;;;;;;1.42;0.60;;;;;;;8.85;68.95;98142.41;1801941;78;21084;-59
2021/05/03 00:10:18;;;;;;;0.60;0.50;;;;;;;8.82;69.01;98130.34;1785584;78;21201;-59
2021/05/03 00:12:47;;;;;;;0.65;0.57;;;;;;;8.81;68.84;98141.16;1733150;80;20973;-60
2021/05/03 00:15:16;;;;;;;2.05;0.80;;;;;;;8.78;68.59;98138.38;1756558;81;21020;-59
2021/05/03 00:17:44;;;;;;;0.75;0.72;;;;;;;8.76;68.60;98143.56;1786987;79;21120;-60
2021/05/03 00:20:12;;;;;;;0.70;0.70;;;;;;;8.73;68.71;98143.44;1750251;79;21545;-59
2021/05/03 00:22:39;;;;;;;2.37;0.62;;;;;;;8.69;68.60;98150.94;1754759;79;21261;-59
2021/05/03 00:25:10;;;;;;;0.65;0.60;;;;;;;8.64;68.96;98154.67;1770515;78;20958;-59
2021/05/03 00:27:38;;;;;;;0.90;0.78;;;;;;;8.62;69.08;98151.40;1800357;78;21108;-59
2021/05/03 00:30:08;;;;;;;1.20;0.85;;;;;;;8.63;69.37;98164.13;1735592;81;21131;-60
2021/05/03 00:32:35;;;;;;;0.90;0.75;;;;;;;8.64;69.49;98162.63;1798124;77;21176;-59
2021/05/03 00:35:04;;;;;;;1.87;0.78;;;;;;;8.66;69.54;98165.90;1701124;81;21140;-60
2021/05/03 00:37:31;;;;;;;0.72;0.60;;;;;;;8.67;69.71;98165.40;1702180;80;21125;-59
2021/05/03 00:39:59;;;;;;;1.52;0.90;;;;;;;8.65;69.75;98181.51;1756105;79;21030;-60
2021/05/03 00:42:26;;;;;;;0.85;0.60;;;;;;;8.66;69.80;98184.45;1743970;81;21052;-60
2021/05/03 00:44:53;;;;;;;1.45;0.95;;;;;;;8.65;69.70;98188.14;1750039;79;21073;-60
2021/05/03 00:47:21;;;;;;;0.95;0.60;;;;;;;8.65;69.53;98197.92;1728277;79;21377;-60
2021/05/03 00:49:48;;;;;;;0.88;0.60;;;;;;;8.65;69.65;98193.94;1728218;79;20971;-60
2021/05/03 00:52:16;;;;;;;3.27;0.90;;;;;;;8.64;69.73;98195.77;1739156;79;21061;-60
2021/05/03 00:54:43;;;;;;;0.62;0.62;;;;;;;8.65;69.76;98193.94;1732285;79;21197;-60
2021/05/03 00:57:11;;;;;;;3.92;0.50;;;;;;;8.64;69.75;98206.87;1732965;81;21217;-60
2021/05/03 00:59:40;;;;;;;0.68;0.60;;;;;;;8.63;69.88;98210.52;1766077;79;21353;-60
2021/05/03 01:02:08;;;;;;;1.30;0.62;;;;;;;8.61;69.93;98216.02;1743305;79;21148;-59
2021/05/03 01:04:36;;;;;;;0.50;0.50;;;;;;;8.60;70.07;98224.97;1764592;79;20893;-60
2021/05/03 01:07:03;;;;;;;0.95;0.75;;;;;;;8.55;69.66;98216.76;1728157;79;21010;-60
2021/05/03 01:09:31;;;;;;;0.62;0.62;;;;;;;8.50;68.77;98212.53;1753985;79;21157;-59
2021/05/03 01:12:00;;;;;;;0.72;0.50;;;;;;;8.46;66.84;98221.88;1738412;80;21000;-59
2021/05/03 01:14:27;;;;;;;4.05;0.60;;;;;;;8.40;66.46;98210.69;1742792;80;21493;-60
2021/05/03 01:16:55;;;;;;;0.65;0.57;;;;;;;8.37;66.59;98216.88;1776295;78;21575;-59
2021/05/03 01:19:22;;;;;;;0.55;0.55;;;;;;;8.31;66.56;98225.07;1701275;81;21073;-60
2021/05/03 01:21:51;;;;;;;1.50;0.50;;;;;;;8.26;66.78;98220.80;1716930;82;21129;-60
2021/05/03 01:24:18;;;;;;;1.05;0.60;;;;;;;8.23;66.94;98223.81;1712530;81;22204;-60
2021/05/03 01:26:46;;;;;;;0.72;0.65;;;;;;;8.17;67.16;98211.80;1759254;80;21179;-60
2021/05/03 01:29:15;;;;;;;0.65;0.55;;;;;;;8.10;67.62;98222.33;1797780;78;21042;-60
2021/05/03 01:31:47;;;;;;;1.55;0.80;;;;;;;8.07;68.08;98227.50;1772357;78;21603;-59
2021/05/03 01:34:15;;;;;;;2.02;0.68;;;;;;;8.02;68.46;98225.08;1739382;80;21155;-59
2021/05/03 01:36:44;;;;;;;0.70;0.62;;;;;;;7.97;68.81;98228.28;1796451;78;21368;-59
2021/05/03 01:39:15;;;;;;;0.95;0.82;;;;;;;7.96;69.12;98229.78;1773233;78;21107;-60
2021/05/03 01:41:42;;;;;;;0.57;0.50;;;;;;;7.96;69.25;98240.37;1778528;78;21714;-59
2021/05/03 01:44:11;;;;;;;1.35;0.90;;;;;;;7.95;69.55;98247.48;1806030;78;20938;-59
2021/05/03 01:46:39;;;;;;;0.70;0.70;;;;;;;7.97;69.71;98239.38;1798235;79;21114;-59
2021/05/03 01:49:08;;;;;;;1.32;0.72;;;;;;;7.96;70.02;98243.02;1763199;79;21198;-60
2021/05/03 01:51:37;;;;;;;1.25;0.93;;;;;;;7.94;70.08;98242.38;1804678;79;20942;-60
2021/05/03 01:54:06;;;;;;;0.75;0.60;;;;;;;7.90;70.49;98237.15;1784636;79;20929;-59
2021/05/03 01:56:35;;;;;;;0.93;0.47;;;;;;;7.89;70.73;98246.91;1795611;79;21501;-58
2021/05/03 01:59:05;;;;;;;0.90;0.90;;;;;;;7.89;70.88;98250.89;1787443;79;21050;-61
2021/05/03 02:01:39;;;;;;;0.80;0.70;;;;;;;7.88;70.96;98262.97;1777172;77;22277;-61
2021/05/03 02:04:07;;;;;;;0.88;0.80;;;;;;;7.85;71.12;98261.50;1811655;77;20976;-59
2021/05/03 02:06:38;;;;;;;0.55;0.55;;;;;;;7.86;71.61;98255.22;1777381;77;21051;-60
2021/05/03 02:09:10;;;;;;;0.62;0.62;;;;;;;7.87;71.83;98265.31;1791095;77;20940;-60
2021/05/03 02:11:39;;;;;;;1.10;0.93;;;;;;;7.86;71.73;98266.30;1772461;77;21227;-59
2021/05/03 02:14:09;;;;;;;1.10;0.80;;;;;;;7.81;72.17;98271.33;1812081;79;21231;-60
2021/05/03 02:16:37;;;;;;;0.80;0.80;;;;;;;7.78;72.30;98277.81;1776869;79;20940;-59
2021/05/03 02:19:05;;;;;;;0.72;0.53;;;;;;;7.76;72.65;98273.70;1792176;79;21111;-60
2021/05/03 02:21:33;;;;;;;0.90;0.47;;;;;;;7.79;72.86;98274.17;1774380;79;21148;-59
2021/05/03 02:24:00;;;;;;;1.25;0.80;;;;;;;7.81;72.88;98269.51;1729266;82;21119;-60
2021/05/03 02:26:27;;;;;;;1.07;0.98;;;;;;;7.82;72.87;98279.08;1738624;79;22290;-60
2021/05/03 02:28:55;;;;;;;1.05;0.90;;;;;;;7.78;73.07;98283.59;1795697;79;20983;-60
2021/05/03 02:31:22;;;;;;;0.85;0.70;;;;;;;7.74;73.35;98283.16;1771396;79;21104;-60
2021/05/03 02:33:50;;;;;;;0.78;0.60;;;;;;;7.71;73.68;98284.84;1799858;77;21149;-60
2021/05/03 02:36:18;;;;;;;1.00;0.85;;;;;;;7.71;73.77;98285.34;1797892;79;21103;-59
2021/05/03 02:38:46;;;;;;;0.90;0.80;;;;;;;7.72;74.03;98287.78;1763319;79;22246;-59
2021/05/03 02:41:14;;;;;;;0.72;0.60;;;;;;;7.75;74.25;98287.92;1794366;77;21011;-59
2021/05/03 02:43:41;;;;;;;0.60;0.50;;;;;;;7.77;73.44;98292.56;1796268;79;21230;-59
2021/05/03 02:46:09;;;;;;;0.53;0.53;;;;;;;7.75;72.29;98304.64;1782139;79;21152;-59
2021/05/03 02:48:37;;;;;;;0.60;0.60;;;;;;;7.71;71.54;98295.42;1782188;79;21119;-60
2021/05/03 02:51:05;;;;;;;0.62;0.62;;;;;;;7.68;70.53;98302.90;1777704;77;21440;-58
2021/05/03 02:53:33;;;;;;;0.50;0.50;;;;;;;7.66;69.69;98303.58;1776225;79;20898;-58
2021/05/03 02:56:00;;;;;;;0.50;0.50;;;;;;;7.64;69.33;98298.98;1763329;79;21008;-60
2021/05/03 02:58:27;;;;;;;0.65;0.60;;;;;;;7.62;68.79;98299.64;1808541;77;20924;-59
2021/05/03 03:00:55;;;;;;;0.88;0.88;;;;;;;7.60;68.72;98283.12;1784060;79;21071;-59
2021/05/03 03:03:22;;;;;;;0.98;0.88;;;;;;;7.57;68.70;98292.24;1726648;83;22193;-59
2021/05/03 03:05:50;;;;;;;1.57;1.12;;;;;;;7.56;68.78;98304.34;1772474;77;21059;-59
2021/05/03 03:08:17;;;;;;;0.90;0.72;;;;;;;7.55;68.78;98309.30;1763321;79;20969;-60
2021/05/03 03:10:45;;;;;;;0.80;0.80;;;;;;;7.54;68.88;98319.06;1776010;79;21171;-60
2021/05/03 03:13:13;;;;;;;1.67;1.00;;;;;;;7.53;68.88;98324.55;1799153;79;21100;-59
2021/05/03 03:15:40;;;;;;;1.10;1.00;;;;;;;7.50;69.31;98323.58;1779942;79;21314;-59
2021/05/03 03:18:08;;;;;;;0.98;0.90;;;;;;;7.49;69.39;98328.04;1778075;79;21162;-60
2021/05/03 03:20:36;;;;;;;1.50;1.15;;;;;;;7.48;69.41;98329.55;1767519;79;20929;-60
2021/05/03 03:23:04;;;;;;;1.02;1.00;;;;;;;7.45;69.71;98341.32;1729224;81;21175;-60
2021/05/03 03:25:32;;;;;;;3.05;1.25;;;;;;;7.45;69.71;98342.64;1782119;79;21167;-60
2021/05/03 03:28:00;;;;;;;1.37;1.27;;;;;;;7.46;69.84;98347.74;1782169;79;21347;-60
2021/05/03 03:30:27;;;;;;;1.30;1.20;;;;;;;7.46;69.73;98347.74;1771086;79;21071;-60
2021/05/03 03:32:57;;;;;;;0.88;0.88;;;;;;;7.45;69.75;98351.41;1708730;82;21131;-59
2021/05/03 03:35:28;;;;;;;1.07;1.07;;;;;;;7.42;69.71;98354.41;1782157;79;21137;-60
2021/05/03 03:37:54;;;;;;;1.00;0.93;;;;;;;7.41;69.74;98352.75;1800638;77;21099;-61
2021/05/03 03:40:23;;;;;;;1.20;1.20;;;;;;;7.37;69.69;98358.58;1768128;79;21187;-61
2021/05/03 03:42:50;;;;;;;1.02;0.93;;;;;;;7.36;69.89;98359.07;1772503;79;21130;-60
2021/05/03 03:45:19;;;;;;;1.17;1.10;;;;;;;7.34;69.27;98359.75;1790292;79;21014;-60
2021/05/03 03:47:47;;;;;;;1.62;1.52;;;;;;;7.34;68.81;98369.51;1701068;80;21180;-60
2021/05/03 03:50:14;;;;;;;1.45;1.35;;;;;;;7.32;68.68;98376.80;1796204;79;21084;-59
2021/05/03 03:52:42;;;;;;;2.33;2.12;;;;;;;7.28;68.76;98386.91;1741856;81;21392;-60
2021/05/03 03:55:10;;;;;;;2.30;2.15;;;;;;;7.24;69.32;98393.56;1780596;77;21022;-59
2021/05/03 03:57:38;;;;;;;2.80;2.60;;;;;;;7.20;69.74;98384.31;1780241;79;20986;-59
2021/05/03 04:00:07;;;;;;;2.55;2.35;;;;;;;7.17;70.21;98384.66;1738875;81;21063;-59
2021/05/03 04:02:35;;;;;;;2.25;2.08;;;;;;;7.15;70.67;98403.85;1787632;79;21658;-60
2021/05/03 04:07:41;;;;;;;2.10;2.00;;;;;;;7.22;70.84;98408.76;1770381;79;20938;-58
2021/05/03 04:10:20;;;;;;;1.85;1.50;;;;;;;7.25;70.67;98411.06;1804814;77;21045;-60
2021/05/03 04:26:15;;;;;;;1.72;1.62;;;;;;;7.20;70.47;98404.64;1778192;79;21105;-60
2021/05/03 04:28:47;;;;;;;2.08;1.98;;;;;;;7.15;70.24;98419.72;1770444;79;21710;-58
2021/05/03 04:31:17;;;;;;;1.57;1.47;;;;;;;7.13;70.38;98417.76;1790215;79;21256;-61
2021/05/03 04:33:45;;;;;;;2.12;1.62;;;;;;;7.12;69.77;98419.23;1787164;79;21192;-59
2021/05/03 04:36:12;;;;;;;1.37;1.37;;;;;;;7.10;69.97;98426.03;1800778;79;21176;-59
2021/05/03 04:38:40;;;;;;;1.90;1.77;;;;;;;7.12;69.87;98429.81;1770253;79;21125;-59
2021/05/03 04:41:08;;;;;;;1.67;1.57;;;;;;;7.11;69.67;98433.48;1796777;79;21145;-60
2021/05/03 04:43:37;;;;;;;1.70;1.60;;;;;;;7.12;69.90;98432.45;1793802;79;21308;-60
2021/05/03 04:46:05;;;;;;;1.80;1.70;;;;;;;7.13;69.64;98421.73;1766893;79;21591;-60
2021/05/03 04:48:33;;;;;;;1.50;1.40;;;;;;;7.11;69.53;98426.86;1773370;79;21520;-60
2021/05/03 04:51:00;;;;;;;1.92;1.72;;;;;;;7.11;69.59;98431.66;1795506;78;21130;-60
2021/05/03 04:53:28;;;;;;;2.02;1.60;;;;;;;7.12;69.52;98429.32;1773323;79;21103;-60
2021/05/03 04:55:57;;;;;;;1.37;1.27;;;;;;;7.13;69.60;98425.69;1765688;78;21382;-59
2021/05/03 04:58:24;;;;;;;5.03;1.65;;;;;;;7.21;69.52;98436.72;1784159;78;20944;-60
2021/05/03 05:00:52;;;;;;;1.47;1.37;;;;;;;7.26;69.00;98427.27;1785507;78;21101;-60
2021/05/03 05:03:19;;;;;;;1.50;1.40;;;;;;;7.30;68.97;98426.44;1773235;78;21084;-59
2021/05/03 05:05:50;;;;;;;2.22;2.00;;;;;;;7.34;68.81;98433.84;1790437;79;21123;-59
2021/05/03 05:08:16;;;;;;;1.65;1.55;;;;;;;7.35;68.83;98432.82;1779531;78;21430;-61
2021/05/03 05:10:44;;;;;;;1.72;1.62;;;;;;;7.38;68.80;98450.16;1779111;78;20918;-60
2021/05/03 05:13:12;;;;;;;1.80;1.70;;;;;;;7.44;69.07;98459.57;1773251;78;21136;-60
2021/05/03 05:15:41;;;;;;;1.50;1.40;;;;;;;7.53;68.89;98456.88;1786053;78;20999;-60
2021/05/03 05:18:09;;;;;;;2.80;2.52;;;;;;;7.58;68.71;98461.14;1781850;78;21032;-60
2021/05/03 05:20:36;;;;;;;4.53;1.50;;;;;;;7.63;68.29;98456.97;1780232;79;21194;-61
2021/05/03 05:23:05;;;;;;;1.52;1.42;;;;;;;7.67;68.17;98456.92;1787442;79;20943;-61
2021/05/03 05:25:33;;;;;;;1.98;1.72;;;;;;;7.72;68.03;98457.22;1782627;78;21044;-60
2021/05/03 05:28:02;;;;;;;1.87;1.77;;;;;;;7.71;67.33;98469.32;1787182;78;21121;-59
2021/05/03 05:30:29;;;;;;;3.10;2.00;;;;;;;7.66;67.74;98473.00;1738292;80;21665;-60
2021/05/03 05:32:57;;;;;;;1.70;1.60;;;;;;;7.66;68.02;98459.27;1738580;81;21337;-60
2021/05/03 05:35:24;;;;;;;1.80;1.70;;;;;;;7.67;67.90;98471.48;1738691;81;20934;-60
2021/05/03 05:37:52;;;;;;;1.65;1.55;;;;;;;7.68;68.05;98474.96;1738820;81;21009;-59
2021/05/03 05:40:19;;;;;;;1.90;1.70;;;;;;;7.66;68.12;98472.50;1749134;81;21178;-61
2021/05/03 05:42:47;;;;;;;5.75;4.10;;;;;;;7.66;68.28;98467.70;1716043;80;21159;-60
2021/05/03 05:45:16;;;;;;;3.08;1.90;;;;;;;7.65;68.09;98488.05;1737243;79;21377;-62
2021/05/03 05:47:44;;;;;;;2.20;1.87;;;;;;;7.63;68.14;98487.41;1746914;79;21108;-60
2021/05/03 05:50:11;;;;;;;2.40;2.10;;;;;;;7.66;68.57;98465.05;1756168;80;21124;-60
2021/05/03 05:52:39;;;;;;;2.20;2.00;;;;;;;7.68;68.33;98493.49;1751666;79;21263;-60
2021/05/03 05:55:08;;;;;;;2.05;1.95;;;;;;;7.73;68.42;98491.14;1763720;79;21587;-60
2021/05/03 05:57:35;;;;;;;2.75;2.00;;;;;;;7.78;68.35;98498.05;1760268;80;21342;-60
2021/05/03 06:00:04;;;;;;;1.82;1.72;;;;;;;7.81;68.18;98507.80;1700323;82;21029;-60
2021/05/03 06:02:34;;;;;;;1.98;1.87;;;;;;;7.86;67.84;98504.12;1713428;81;21186;-60
2021/05/03 06:05:03;;;;;;;1.80;1.70;;;;;;;7.94;67.46;98496.12;1747120;79;21139;-59
2021/05/03 06:07:30;;;;;;;2.00;1.90;;;;;;;8.04;67.46;98494.55;1765198;79;21136;-60
2021/05/03 06:09:58;;;;;;;1.80;1.70;;;;;;;8.09;67.09;98498.81;1772647;79;21386;-60
2021/05/03 06:12:25;;;;;;;2.42;2.22;;;;;;;8.08;66.71;98507.78;1709249;83;21195;-59
2021/05/03 06:14:53;;;;;;;3.08;1.80;;;;;;;8.04;66.43;98511.77;1712234;81;21165;-60
2021/05/03 06:17:21;;;;;;;2.62;2.30;;;;;;;7.99;66.48;98509.66;1730241;81;21155;-64
2021/05/03 06:19:49;;;;;;;2.80;2.52;;;;;;;7.95;66.31;98531.38;1707991;82;21184;-61
2021/05/03 06:22:17;;;;;;;1.72;1.62;;;;;;;7.91;68.06;98524.77;1712793;81;21368;-60
2021/05/03 06:24:46;;;;;;;5.72;4.30;;;;;;;7.98;67.23;98533.65;1722353;81;21097;-61
2021/05/03 06:27:13;;;;;;;2.15;2.02;;;;;;;8.00;67.15;98531.67;1727708;81;20981;-57
2021/05/03 06:29:41;;;;;;;2.20;2.00;;;;;;;8.09;67.00;98531.92;1716521;81;20993;-58
2021/05/03 06:32:08;;;;;;;2.05;1.95;;;;;;;8.15;66.59;98526.42;1717678;81;21685;-59
2021/05/03 06:34:37;;;;;;;1.98;1.77;;;;;;;8.19;66.02;98534.32;1712295;81;21386;-60
2021/05/03 06:37:05;;;;;;;3.05;1.55;;;;;;;8.26;65.61;98528.16;1766090;79;21081;-59
2021/05/03 06:39:33;;;;;;;2.95;1.77;;;;;;;8.38;67.20;98543.98;1764465;79;20988;-58
2021/05/03 06:42:01;;;;;;;1.90;1.80;;;;;;;8.46;65.31;98531.98;1751697;79;21597;-59
2021/05/03 06:44:28;;;;;;;2.50;1.70;;;;;;;8.46;64.71;98541.75;1764156;79;21120;-59
2021/05/03 06:46:58;;;;;;;1.70;1.60;;;;;;;8.41;64.38;98548.09;1725425;82;21272;-59
2021/05/03 06:49:26;;;;;;;1.92;1.70;;;;;;;8.29;64.57;98560.13;1765030;79;21086;-60
2021/05/03 06:51:54;;;;;;;1.72;1.62;;;;;;;8.21;64.70;98547.75;1791949;77;21163;-58
2021/05/03 06:54:22;;;;;;;2.05;1.95;;;;;;;8.10;65.01;98542.86;1787514;78;21021;-60
2021/05/03 06:56:49;;;;;;;1.57;1.47;;;;;;;8.03;65.38;98553.81;1777126;78;21147;-57
2021/05/03 06:59:16;;;;;;;1.85;1.75;;;;;;;7.95;65.63;98565.28;1781630;77;22148;-56
2021/05/03 07:01:44;;;;;;;1.90;1.80;;;;;;;7.90;65.98;98559.70;1797797;78;20998;-58
2021/05/03 07:04:11;;;;;;;2.27;1.90;;;;;;;7.95;66.34;98557.87;1748679;80;21564;-57
2021/05/03 07:06:39;;;;;;;2.25;2.08;;;;;;;7.98;65.89;98560.14;1738327;81;21582;-56
2021/05/03 07:09:10;;;;;;;1.50;1.40;;;;;;;8.00;65.67;98563.46;1785757;77;21143;-59
2021/05/03 07:11:41;;;;;;;2.85;2.05;;;;;;;8.03;65.45;98568.37;1752564;80;21216;-58
2021/05/03 07:14:09;;;;;;;2.05;1.87;;;;;;;7.99;65.24;98575.87;1788428;77;20989;-59
2021/05/03 07:16:37;;;;;;;1.80;1.70;;;;;;;7.96;65.53;98570.09;1798982;78;21092;-61
2021/05/03 07:19:05;;;;;;;2.30;2.10;;;;;;;7.94;65.68;98571.60;1731461;80;21187;-63
2021/05/03 07:21:35;;;;;;;2.50;2.15;;;;;;;7.96;65.61;98580.69;1732067;81;21579;-63
2021/05/03 07:24:06;;;;;;;2.15;1.85;;;;;;;7.97;65.58;98584.99;1738439;79;21387;-64
2021/05/03 07:26:33;;;;;;;2.62;2.42;;;;;;;7.94;65.83;98588.81;1738657;81;21105;-64
2021/05/03 07:29:01;;;;;;;2.30;2.10;;;;;;;7.87;66.09;98593.14;1739219;79;21010;-59
2021/05/03 07:31:28;;;;;;;2.40;2.20;;;;;;;7.83;66.65;98587.05;1774199;79;21097;-62
2021/05/03 07:33:56;;;;;;;2.20;1.95;;;;;;;7.77;66.67;98611.08;1748548;81;21071;-59
2021/05/03 07:36:23;;;;;;;2.37;2.17;;;;;;;7.70;67.04;98606.16;1745804;79;21202;-62
2021/05/03 07:38:52;;;;;;;2.00;1.90;;;;;;;7.70;67.07;98606.64;1724714;80;21674;-61
2021/05/03 07:41:19;;;;;;;2.30;2.10;;;;;;;7.69;67.11;98607.66;1728906;80;21827;-65
2021/05/03 07:43:47;;;;;;;3.15;2.42;;;;;;;7.75;67.30;98601.16;1742046;81;20960;-63
2021/05/03 07:46:14;;;;;;;2.47;2.05;;;;;;;7.87;67.21;98605.58;1748532;80;21138;-63
2021/05/03 07:48:43;;;;;;;3.05;2.50;;;;;;;7.99;66.74;98613.45;1755708;79;21389;-65
2021/05/03 07:51:10;;;;;;;3.65;2.40;;;;;;;8.16;66.12;98600.41;1760131;79;21149;-69
2021/05/03 07:53:38;;;;;;;2.50;2.30;;;;;;;8.35;65.32;98607.10;1755796;79;21580;-67
2021/05/03 07:56:07;;;;;;;3.10;2.85;;;;;;;8.60;64.80;98602.75;1758944;80;21056;-65
2021/05/03 07:58:34;;;;;;;3.00;2.47;;;;;;;9.00;63.92;98593.59;1755226;80;21137;-62
2021/05/03 08:01:02;;;;;;;2.12;2.00;;;;;;;9.44;62.61;98602.09;1757107;80;22277;-64
2021/05/03 08:03:29;;;;;;;2.10;2.00;;;;;;;9.87;61.19;98613.15;1758747;79;21614;-67
2021/05/03 08:05:57;;;;;;;2.10;2.00;;;;;;;10.15;59.34;98618.09;1755490;80;21083;-64
2021/05/03 08:08:25;;;;;;;2.45;1.98;;;;;;;10.21;59.12;98617.86;1759397;80;21149;-63
2021/05/03 08:10:52;;;;;;;2.33;2.12;;;;;;;10.21;58.93;98617.86;1764865;80;21564;-67
2021/05/03 08:13:19;;;;;;;2.15;1.95;;;;;;;10.12;58.13;98626.91;1755126;79;21205;-65
2021/05/03 08:15:49;;;;;;;2.12;1.92;;;;;;;10.04;58.63;98629.70;1753881;79;21157;-62
2021/05/03 08:18:16;;;;;;;2.02;1.82;;;;;;;9.91;58.41;98627.69;1753655;80;21560;-66
2021/05/03 08:20:44;;;;;;;2.00;1.72;;;;;;;9.80;59.23;98626.87;1756185;79;21575;-62
2021/05/03 08:23:18;;;;;;;3.25;2.20;;;;;;;9.74;58.93;98621.79;1767396;80;21197;-64
2021/05/03 08:25:42;;;;;;;3.22;1.67;;;;;;;9.69;58.49;98625.51;1786607;79;21204;-70
2021/05/03 08:28:11;;;;;;;1.40;1.30;;;;;;;9.64;58.07;98625.73;1771908;78;21542;-63
2021/05/03 08:30:38;;;;;;;1.85;1.70;;;;;;;9.56;58.04;98625.33;1785063;80;21076;-61
2021/05/03 08:33:06;;;;;;;2.50;1.90;;;;;;;9.55;58.37;98625.00;1741059;81;21146;-62
2021/05/03 08:35:33;;;;;;;2.47;2.27;;;;;;;9.59;59.08;98628.13;1755785;78;21184;-60
2021/05/03 08:38:02;;;;;;;1.77;1.67;;;;;;;9.69;58.43;98629.98;1747889;81;21408;-61
2021/05/03 08:40:31;;;;;;;2.27;1.50;;;;;;;9.71;58.21;98626.64;1743905;81;21176;-60
2021/05/03 08:43:02;;;;;;;1.75;1.60;;;;;;;9.73;58.07;98632.58;1749871;81;20980;-61
2021/05/03 08:45:33;;;;;;;2.15;1.62;;;;;;;9.69;58.12;98633.97;1764728;78;21137;-60
2021/05/03 08:51:10;;;;;;;2.80;1.77;;;;;;;9.66;58.79;98648.45;1826233;78;22118;-61
2021/05/03 08:53:55;;;;;;;1.57;1.40;;;;;;;9.59;58.30;98631.61;1796708;78;20962;-62
2021/05/03 08:56:00;;;;;;;2.08;1.52;;;;;;;9.58;57.75;98646.38;1794642;79;22138;-71
2021/05/03 08:58:28;;;;;;;1.52;1.42;;;;;;;9.46;57.09;98639.39;1799243;77;21057;-60
2021/05/03 09:00:57;;;;;;;1.50;1.40;;;;;;;9.36;57.19;98638.82;1785129;79;21467;-62
2021/05/03 09:03:26;;;;;;;1.45;1.20;;;;;;;9.38;57.47;98646.13;1778603;78;21601;-60
2021/05/03 09:05:55;;;;;;;1.77;1.20;;;;;;;9.47;57.05;98638.87;1776597;79;21581;-60
2021/05/03 09:08:27;;;;;;;1.52;1.42;;;;;;;9.50;56.71;98630.05;1750165;79;21329;-64
2021/05/03 09:10:56;;;;;;;1.10;1.10;;;;;;;9.48;56.37;98644.51;1783029;79;21151;-63
2021/05/03 09:13:36;;;;;;;1.42;1.32;;;;;;;9.41;56.43;98624.49;1776477;79;20985;-65
2021/05/03 09:16:23;;;;;;;1.20;1.10;;;;;;;9.33;57.02;98643.69;1780904;79;21044;-64
2021/05/03 09:18:51;;;;;;;1.52;1.15;;;;;;;9.27;57.41;98659.83;1776904;79;21617;-64
2021/05/03 09:21:29;;;;;;;2.25;1.40;;;;;;;9.21;57.87;98652.59;1776662;79;21393;-64
2021/05/03 09:24:14;;;;;;;2.25;1.52;;;;;;;9.27;58.49;98643.41;1777328;79;20981;-64
2021/05/03 09:26:52;;;;;;;2.62;1.50;;;;;;;9.60;58.01;98645.19;1777189;77;21465;-60
2021/05/03 09:29:42;;;;;;;2.05;1.22;;;;;;;9.90;55.88;98646.82;1773954;79;20886;-63
2021/05/03 09:32:21;;;;;;;1.77;1.50;;;;;;;10.04;55.62;98650.97;1754439;80;20914;-68
2021/05/03 09:34:52;;;;;;;1.30;1.20;;;;;;;10.19;55.52;98640.65;1777038;79;21538;-63
2021/05/03 09:40:18;;;;;;;2.62;1.30;;;;;;;10.51;55.06;98646.80;1822670;78;22650;-64
2021/05/03 09:42:53;;;;;;;1.42;1.32;;;;;;;10.59;54.73;98637.86;1796132;79;20907;-67
2021/05/03 09:45:30;;;;;;;1.95;1.60;;;;;;;10.60;54.39;98643.51;1794677;79;21407;-73
2021/05/03 09:47:59;;;;;;;2.72;1.55;;;;;;;10.59;54.57;98647.17;1800899;78;20977;-61
2021/05/03 09:50:30;;;;;;;2.80;1.50;;;;;;;10.63;54.34;98648.45;1788011;79;20981;-63
2021/05/03 09:53:13;;;;;;;2.42;1.30;;;;;;;10.73;54.36;98645.46;1794219;79;20969;-62
2021/05/03 09:55:47;;;;;;;1.40;1.30;;;;;;;10.82;53.54;98643.80;1777534;79;20958;-61
2021/05/03 09:58:24;;;;;;;2.60;1.50;;;;;;;10.84;53.69;98643.13;1782318;79;21378;-63
2021/05/03 10:00:56;;;;;;;1.45;1.12;;;;;;;10.92;53.70;98640.83;1779983;79;21139;-63
2021/05/03 10:03:45;;;;;;;1.62;1.30;;;;;;;10.99;52.62;98646.52;1788094;77;21032;-65
2021/05/03 10:06:15;;;;;;;1.55;1.30;;;;;;;10.91;51.95;98649.81;1784419;79;20985;-61
2021/05/03 10:08:50;;;;;;;1.32;1.22;;;;;;;10.78;51.91;98664.33;1781906;79;21162;-68
2021/05/03 10:11:17;;;;;;;1.65;1.15;;;;;;;10.68;51.68;98666.50;1780133;78;21183;-62
2021/05/03 10:13:48;;;;;;;2.75;1.12;;;;;;;10.53;52.23;98667.37;1786789;78;20929;-60
2021/05/03 10:16:15;;;;;;;1.00;1.00;;;;;;;10.44;52.89;98653.06;1786873;77;20930;-60
2021/05/03 10:18:44;;;;;;;2.60;2.40;;;;;;;10.42;52.96;98673.70;1783845;79;20977;-60
2021/05/03 10:21:13;;;;;;;2.30;2.10;;;;;;;10.43;53.48;98674.00;1784574;78;21087;-61
2021/05/03 10:23:45;;;;;;;1.35;1.10;;;;;;;10.52;53.88;98664.91;1783921;79;21360;-66
2021/05/03 10:26:12;;;;;;;1.87;1.67;;;;;;;10.62;53.61;98663.25;1786338;79;21015;-62
2021/05/03 10:28:57;;;;;;;1.90;1.30;;;;;;;10.68;53.38;98665.99;1774815;79;21500;-68
2021/05/03 10:31:24;;;;;;;1.42;1.32;;;;;;;10.68;53.17;98664.66;1782746;79;20993;-63
2021/05/03 10:33:52;;;;;;;1.62;1.52;;;;;;;10.67;53.56;98656.86;1777131;79;21033;-66
2021/05/03 10:36:35;;;;;;;2.27;1.52;;;;;;;10.60;53.33;98659.47;1783731;79;21348;-67
2021/05/03 10:39:30;;;;;;;1.60;1.42;;;;;;;10.42;53.30;98677.70;1785141;78;21598;-64
2021/05/03 10:42:07;;;;;;;2.17;1.40;;;;;;;10.22;54.57;98697.39;1808109;79;20989;-67
2021/05/03 10:44:38;;;;;;;2.55;1.55;;;;;;;10.11;54.35;98663.31;1800800;79;21135;-63
2021/05/03 10:47:29;;;;;;;2.25;1.42;;;;;;;10.02;54.89;98698.96;1794596;79;21128;-64
2021/05/03 10:49:57;;;;;;;1.60;1.42;;;;;;;10.15;55.10;98697.00;1781722;79;21353;-58
2021/05/03 10:52:33;;;;;;;2.45;1.67;;;;;;;10.41;54.65;98691.48;1786465;79;21393;-64
2021/05/03 10:55:00;;;;;;;1.50;1.40;;;;;;;10.57;54.39;98693.09;1807480;79;21073;-61
2021/05/03 10:57:31;;;;;;;1.67;1.40;;;;;;;10.71;53.62;98696.70;1791822;79;21111;-63
2021/05/03 11:00:01;;;;;;;4.50;1.42;;;;;;;10.78;52.81;98688.28;1787239;77;21108;-67
2021/05/03 11:02:43;;;;;;;1.30;1.20;;;;;;;10.89;53.09;98689.94;1790904;77;21194;-66
2021/05/03 11:05:26;;;;;;;1.80;1.67;;;;;;;11.17;53.21;98695.28;1798977;79;21025;-68
2021/05/03 11:08:11;;;;;;;1.80;1.40;;;;;;;11.55;53.47;98685.91;1783966;79;20985;-62
2021/05/03 11:11:04;;;;;;;1.30;1.20;;;;;;;11.91;51.62;98668.44;1784465;79;21581;-60
2021/05/03 11:13:42;;;;;;;4.50;1.50;;;;;;;12.01;50.36;98680.05;1785163;78;21127;-63
2021/05/03 11:16:33;;;;;;;2.17;1.32;;;;;;;12.00;49.60;98691.73;1786746;79;21368;-67
2021/05/03 11:19:06;;;;;;;2.45;1.57;;;;;;;11.91;49.31;98687.59;1786453;79;21005;-67
2021/05/03 11:21:45;;;;;;;1.80;1.40;;;;;;;11.58;49.45;98676.70;1779767;79;21004;-62
2021/05/03 11:24:24;;;;;;;4.00;1.70;;;;;;;11.26;50.26;98703.95;1784348;79;21098;-66
2021/05/03 11:27:05;;;;;;;2.40;2.12;;;;;;;11.09;52.93;98701.56;1800256;79;21123;-65
2021/05/03 11:29:37;;;;;;;2.33;1.60;;;;;;;11.05;52.41;98697.63;1789790;79;21270;-64
2021/05/03 11:32:00;;;;;;;2.15;1.70;;;;;;;10.94;51.65;98706.14;1787698;79;21191;-63
2021/05/03 11:37:01;;;;;;;1.87;1.40;;;;;;;10.68;51.98;98715.20;1796735;79;21068;-63
2021/05/03 11:42:37;;;;;;;1.80;1.57;;;;;;;10.41;52.49;98717.25;1822208;78;23718;-68
2021/05/03 11:44:57;;;;;;;2.05;1.50;;;;;;;10.35;52.84;98712.70;1802120;79;20985;-62
2021/05/03 11:47:32;;;;;;;4.30;1.62;;;;;;;10.43;53.21;98718.70;1804933;79;21566;-67
2021/05/03 11:50:00;;;;;;;2.65;1.45;;;;;;;10.65;53.04;98718.23;1805486;79;20993;-68
2021/05/03 11:52:32;;;;;;;1.60;1.40;;;;;;;10.89;52.26;98707.23;1805465;79;21547;-63
2021/05/03 11:55:11;;;;;;;2.05;1.60;;;;;;;11.00;51.27;98723.19;1805310;79;20926;-68
2021/05/03 11:57:44;;;;;;;1.67;1.57;;;;;;;11.05;51.04;98722.91;1807579;79;21455;-69
2021/05/03 12:00:12;;;;;;;1.55;1.30;;;;;;;11.07;51.15;98727.56;1807945;79;22156;-68
2021/05/03 12:02:40;;;;;;;2.25;1.52;;;;;;;11.07;50.97;98726.73;1802009;79;20941;-64
2021/05/03 12:05:18;;;;;;;1.42;1.32;;;;;;;10.95;50.74;98731.73;1783274;77;20926;-61
2021/05/03 12:07:47;;;;;;;3.20;1.42;;;;;;;10.93;51.38;98727.61;1784399;79;21036;-67
2021/05/03 12:10:19;;;;;;;2.90;1.55;;;;;;;10.99;51.09;98732.18;1776310;79;21630;-68
2021/05/03 12:12:57;;;;;;;1.30;1.20;;;;;;;11.08;51.34;98731.84;1780087;79;21237;-67
2021/05/03 12:15:26;;;;;;;3.35;1.40;;;;;;;11.28;51.29;98721.89;1798484;77;21096;-71
2021/05/03 12:18:05;;;;;;;1.95;1.50;;;;;;;11.43;50.32;98713.29;1797008;77;21123;-66